Time;durP1;ratioP1;P1;durP2;ratioP2;P2;SDS_P1;SDS_P2;PMS_P1;PMS_P2;Temp;Humidity;BMP_temperature;BMP_pressure;BME280_temperature;BME280_humidity;BME280_pressure;Samples;Min_cycle;Max_cycle;Signal;HPM_P1;HPM_P2
2021/06/26 00:01:25;;;;;;;10.60;9.67;;;17.20;98.90;;;;;;5117057;28;20425;-46
2021/06/26 00:04:00;;;;;;;9.63;8.73;;;17.40;98.80;;;;;;5099223;28;20414;-44
2021/06/26 00:06:26;;;;;;;11.93;9.30;;;17.40;98.50;;;;;;5116969;28;20812;-44
2021/06/26 00:08:52;;;;;;;9.77;8.97;;;17.30;98.80;;;;;;5116387;28;20445;-44
2021/06/26 00:11:20;;;;;;;10.20;9.30;;;17.20;99.00;;;;;;5116877;28;20184;-45
2021/06/26 00:13:47;;;;;;;9.13;8.33;;;17.20;99.20;;;;;;5114625;28;20783;-46
2021/06/26 00:16:16;;;;;;;10.70;9.80;;;17.20;99.40;;;;;;5116776;28;20755;-45
2021/06/26 00:18:42;;;;;;;11.00;9.93;;;17.20;99.50;;;;;;5116208;28;20432;-47
2021/06/26 00:21:11;;;;;;;10.23;9.23;;;17.20;99.70;;;;;;5117028;28;20425;-44
2021/06/26 00:23:37;;;;;;;9.53;8.73;;;17.20;99.70;;;;;;5098854;28;20481;-45
2021/06/26 00:26:03;;;;;;;10.60;8.87;;;17.30;99.70;;;;;;5115876;28;20877;-47
2021/06/26 00:28:30;;;;;;;9.63;8.83;;;17.30;99.70;;;;;;5116620;28;20435;-47
2021/06/26 00:30:59;;;;;;;10.07;9.17;;;17.30;99.70;;;;;;5099004;28;20167;-45
2021/06/26 00:33:24;;;;;;;9.90;9.00;;;17.30;99.60;;;;;;5116565;28;20429;-45
2021/06/26 00:35:53;;;;;;;10.73;9.33;;;17.30;99.50;;;;;;5116270;28;20431;-44
2021/06/26 00:38:19;;;;;;;9.10;8.40;;;17.30;99.50;;;;;;5115946;28;20183;-46
2021/06/26 00:40:48;;;;;;;10.77;9.83;;;17.40;99.60;;;;;;5116751;28;20422;-44
2021/06/26 00:43:14;;;;;;;10.33;9.17;;;17.40;99.50;;;;;;5116836;28;20687;-44
2021/06/26 00:45:40;;;;;;;9.43;8.67;;;17.30;99.50;;;;;;5098229;28;20432;-45
2021/06/26 00:48:06;;;;;;;9.40;8.57;;;17.20;99.20;;;;;;5116314;28;20442;-44
2021/06/26 00:50:32;;;;;;;9.40;8.60;;;17.10;99.00;;;;;;5116695;28;20489;-44
2021/06/26 00:53:00;;;;;;;9.47;8.57;;;17.00;99.10;;;;;;5116637;28;20532;-45
2021/06/26 00:55:26;;;;;;;10.30;9.30;;;16.90;99.30;;;;;;5120443;28;20437;-45
2021/06/26 00:57:58;;;;;;;9.27;8.47;;;16.90;99.50;;;;;;5102589;28;20484;-43
2021/06/26 01:00:31;;;;;;;11.00;9.60;;;16.90;99.70;;;;;;5120200;28;20425;-45
2021/06/26 01:02:57;;;;;;;9.47;8.67;;;17.00;99.70;;;;;;5120561;28;20797;-45
2021/06/26 01:05:23;;;;;;;8.80;7.93;;;17.00;99.60;;;;;;5120001;28;20432;-45
2021/06/26 01:07:51;;;;;;;9.40;8.53;;;17.10;99.70;;;;;;5120694;28;20421;-46
2021/06/26 01:10:18;;;;;;;9.90;9.10;;;17.10;99.50;;;;;;5120386;28;20449;-47
2021/06/26 01:12:44;;;;;;;11.20;9.40;;;17.10;99.40;;;;;;5120124;28;20503;-46
2021/06/26 01:15:10;;;;;;;10.67;9.67;;;17.10;98.90;;;;;;5120347;28;20514;-44
2021/06/26 01:17:37;;;;;;;10.17;9.17;;;16.90;99.50;;;;;;5101939;28;20472;-46
2021/06/26 01:20:04;;;;;;;9.57;8.67;;;16.80;99.90;;;;;;5101954;28;20673;-44
2021/06/26 01:22:35;;;;;;;11.07;9.67;;;16.80;99.90;;;;;;5119469;28;20418;-44
2021/06/26 01:25:01;;;;;;;11.33;10.27;;;16.80;99.90;;;;;;5120024;28;20429;-45
2021/06/26 01:27:27;;;;;;;11.53;10.13;;;16.90;99.90;;;;;;5119987;28;20859;-44
2021/06/26 01:29:54;;;;;;;10.80;9.87;;;16.90;99.90;;;;;;5119762;28;20456;-45
2021/06/26 01:32:20;;;;;;;9.97;9.10;;;16.90;99.90;;;;;;5120116;28;20679;-46
2021/06/26 01:34:46;;;;;;;10.40;9.33;;;17.00;99.90;;;;;;5119142;28;20440;-47
2021/06/26 01:37:14;;;;;;;9.77;8.80;;;16.90;99.90;;;;;;5119909;28;20465;-46
2021/06/26 01:39:39;;;;;;;10.53;9.53;;;17.00;99.90;;;;;;5119411;28;20167;-45
2021/06/26 01:42:06;;;;;;;10.73;9.83;;;17.00;99.90;;;;;;5119551;28;20424;-47
2021/06/26 01:44:32;;;;;;;10.50;9.50;;;17.00;99.90;;;;;;5119477;28;20179;-44
2021/06/26 01:46:58;;;;;;;10.80;9.90;;;17.00;99.90;;;;;;5119580;28;20426;-46
2021/06/26 01:49:24;;;;;;;12.33;11.23;;;17.10;99.90;;;;;;5119261;28;20429;-44
2021/06/26 01:51:50;;;;;;;12.10;10.70;;;17.10;99.90;;;;;;5119626;28;20425;-45
2021/06/26 01:54:16;;;;;;;10.80;9.80;;;17.00;99.90;;;;;;5101181;28;20172;-45
2021/06/26 01:56:42;;;;;;;11.47;10.47;;;17.00;99.90;;;;;;5101894;28;20473;-45
2021/06/26 01:59:08;;;;;;;11.50;10.40;;;17.00;99.90;;;;;;5119519;28;20499;-45
2021/06/26 02:01:35;;;;;;;11.17;10.17;;;17.10;99.90;;;;;;5119007;28;20418;-45
2021/06/26 02:04:01;;;;;;;12.00;11.00;;;17.10;99.90;;;;;;5119104;28;20448;-47
2021/06/26 02:06:27;;;;;;;11.20;10.30;;;17.10;99.90;;;;;;5117949;28;20764;-46
2021/06/26 02:08:53;;;;;;;11.63;10.63;;;17.10;99.90;;;;;;5119209;28;20470;-47
2021/06/26 02:11:19;;;;;;;12.80;11.70;;;17.10;99.90;;;;;;5118396;28;20432;-46
2021/06/26 02:13:44;;;;;;;11.60;10.50;;;17.10;99.90;;;;;;5118321;28;20457;-45
2021/06/26 02:16:11;;;;;;;11.33;10.23;;;17.10;99.90;;;;;;5118189;28;20512;-46
2021/06/26 02:18:36;;;;;;;10.40;9.40;;;17.00;99.90;;;;;;5118101;28;20417;-47
2021/06/26 02:21:03;;;;;;;11.37;10.40;;;17.00;99.90;;;;;;5118483;28;20820;-46
2021/06/26 02:23:29;;;;;;;12.30;11.20;;;17.00;99.90;;;;;;5118579;28;20172;-46
2021/06/26 02:25:55;;;;;;;11.30;10.20;;;17.00;99.90;;;;;;5118438;28;20817;-45
2021/06/26 02:28:21;;;;;;;11.10;10.10;;;17.00;99.90;;;;;;5118421;28;20418;-45
2021/06/26 02:30:47;;;;;;;13.73;12.53;;;17.00;99.90;;;;;;5118912;28;20818;-44
2021/06/26 02:33:13;;;;;;;11.10;10.10;;;16.90;99.90;;;;;;5100462;28;20451;-45
2021/06/26 02:35:39;;;;;;;11.57;10.57;;;16.80;99.90;;;;;;5118492;28;20444;-44
2021/06/26 02:38:05;;;;;;;12.47;11.33;;;16.70;99.90;;;;;;5118378;28;20568;-45
2021/06/26 02:40:31;;;;;;;12.33;11.20;;;16.70;99.90;;;;;;5118062;28;20492;-46
2021/06/26 02:42:57;;;;;;;12.13;11.03;;;16.70;99.90;;;;;;5100245;28;20202;-45
2021/06/26 02:45:24;;;;;;;11.93;10.93;;;16.70;99.90;;;;;;5118079;28;20537;-47
2021/06/26 02:47:50;;;;;;;11.87;10.83;;;16.80;99.90;;;;;;5118785;28;20432;-47
2021/06/26 02:50:16;;;;;;;11.43;10.40;;;16.90;99.90;;;;;;5099914;28;20429;-45
2021/06/26 02:52:42;;;;;;;11.50;10.30;;;16.90;99.90;;;;;;5118053;28;20445;-46
2021/06/26 02:55:09;;;;;;;12.47;11.37;;;16.90;99.90;;;;;;5117998;28;20798;-48
2021/06/26 02:57:36;;;;;;;11.63;10.60;;;17.00;99.90;;;;;;5117898;28;20476;-44
2021/06/26 03:00:03;;;;;;;11.33;10.33;;;17.00;99.90;;;;;;5099698;28;20677;-45
2021/06/26 03:02:28;;;;;;;10.87;9.97;;;17.00;99.90;;;;;;5117786;28;20512;-46
2021/06/26 03:04:54;;;;;;;11.37;10.37;;;17.00;99.90;;;;;;5117512;28;20441;-44
2021/06/26 03:07:20;;;;;;;12.00;10.90;;;17.00;99.90;;;;;;5117910;28;20215;-46
2021/06/26 03:09:46;;;;;;;12.57;11.37;;;17.00;99.90;;;;;;5117524;28;20823;-46
2021/06/26 03:12:12;;;;;;;10.97;9.90;;;17.00;99.90;;;;;;5117720;28;20231;-45
2021/06/26 03:14:38;;;;;;;11.40;10.40;;;17.00;99.90;;;;;;5117348;28;20249;-46
2021/06/26 03:17:04;;;;;;;13.47;12.17;;;16.90;99.90;;;;;;5116885;28;20468;-45
2021/06/26 03:19:30;;;;;;;11.73;10.43;;;16.90;99.90;;;;;;5117213;28;20172;-49
2021/06/26 03:21:56;;;;;;;11.80;10.70;;;16.90;99.90;;;;;;5117331;28;20525;-46
2021/06/26 03:24:21;;;;;;;11.73;10.73;;;16.80;99.90;;;;;;5117311;28;20197;-46
2021/06/26 03:26:47;;;;;;;12.70;11.40;;;16.80;99.90;;;;;;5117582;28;20425;-45
2021/06/26 03:29:13;;;;;;;11.50;10.50;;;16.80;99.90;;;;;;5117471;28;20354;-45
2021/06/26 03:31:39;;;;;;;12.57;11.37;;;16.80;99.90;;;;;;5117770;28;20176;-45
2021/06/26 03:34:05;;;;;;;11.50;10.50;;;16.70;99.90;;;;;;5117024;28;20388;-48
2021/06/26 03:36:31;;;;;;;10.97;9.83;;;16.70;99.90;;;;;;5116689;28;20464;-46
2021/06/26 03:38:57;;;;;;;11.40;10.50;;;16.70;99.90;;;;;;5117112;28;20168;-45
2021/06/26 03:41:25;;;;;;;11.50;10.40;;;16.60;99.90;;;;;;5117073;28;20453;-45
2021/06/26 03:43:57;;;;;;;12.10;11.10;;;16.60;99.90;;;;;;5117156;28;20187;-46
2021/06/26 03:46:23;;;;;;;11.90;10.87;;;16.60;99.90;;;;;;5117344;28;20463;-44
2021/06/26 03:48:48;;;;;;;12.17;11.07;;;16.60;99.90;;;;;;5117148;28;20449;-46
2021/06/26 03:51:15;;;;;;;11.17;10.03;;;16.60;99.90;;;;;;5098738;28;20530;-45
2021/06/26 03:53:40;;;;;;;12.40;11.40;;;16.70;99.90;;;;;;5116727;28;20176;-46
2021/06/26 03:56:06;;;;;;;12.13;10.93;;;16.70;99.90;;;;;;5116369;28;20835;-45
2021/06/26 03:58:32;;;;;;;11.07;10.07;;;16.70;99.90;;;;;;5116862;28;20240;-47
2021/06/26 04:00:58;;;;;;;11.50;10.33;;;16.70;99.90;;;;;;5116881;28;20187;-47
2021/06/26 04:03:24;;;;;;;11.50;10.50;;;16.70;99.90;;;;;;5116695;28;20182;-46
2021/06/26 04:05:50;;;;;;;11.60;10.50;;;16.70;99.90;;;;;;5117127;28;20424;-45
2021/06/26 04:08:16;;;;;;;13.03;11.50;;;16.90;99.90;;;;;;5117073;28;20903;-43
2021/06/26 04:10:43;;;;;;;12.40;11.30;;;17.10;99.90;;;;;;5082054;28;20434;-45
2021/06/26 04:13:09;;;;;;;11.73;10.73;;;17.20;99.90;;;;;;5116821;28;20461;-45
2021/06/26 04:15:34;;;;;;;11.67;10.67;;;17.40;99.90;;;;;;5116633;28;20494;-43
2021/06/26 04:18:00;;;;;;;11.63;10.53;;;17.50;99.90;;;;;;5116928;28;20214;-45
2021/06/26 04:20:27;;;;;;;11.80;10.70;;;17.70;99.80;;;;;;5116104;28;20521;-43
2021/06/26 04:22:53;;;;;;;13.00;11.70;;;17.90;99.40;;;;;;5117066;28;20843;-44
2021/06/26 04:25:19;;;;;;;11.17;10.17;;;17.90;99.10;;;;;;5116378;28;20668;-44
2021/06/26 04:27:45;;;;;;;11.60;10.50;;;18.00;99.00;;;;;;5116580;28;20422;-46
2021/06/26 04:30:12;;;;;;;12.23;11.13;;;18.00;98.80;;;;;;5120540;28;20680;-47
2021/06/26 04:32:39;;;;;;;13.10;11.80;;;18.00;98.60;;;;;;5120839;28;20413;-46
2021/06/26 04:35:07;;;;;;;13.30;12.10;;;17.90;98.80;;;;;;5120703;28;20429;-45
2021/06/26 04:37:33;;;;;;;12.03;11.03;;;17.90;99.00;;;;;;5120104;28;20894;-44
2021/06/26 04:40:00;;;;;;;12.47;11.47;;;17.90;99.00;;;;;;5119208;28;20486;-43
2021/06/26 04:42:26;;;;;;;11.37;10.33;;;18.00;98.90;;;;;;5119030;28;20444;-46
2021/06/26 04:44:52;;;;;;;11.87;10.67;;;18.10;98.70;;;;;;5119083;28;20445;-43
2021/06/26 04:47:18;;;;;;;10.77;9.87;;;18.30;98.40;;;;;;5118779;28;20180;-44
2021/06/26 04:49:44;;;;;;;11.77;10.77;;;18.40;98.10;;;;;;5119393;28;20417;-44
2021/06/26 04:52:09;;;;;;;11.27;10.37;;;18.50;98.00;;;;;;5120536;28;20176;-43
2021/06/26 04:54:36;;;;;;;13.03;11.73;;;18.50;97.80;;;;;;5102025;28;20644;-43
2021/06/26 04:57:02;;;;;;;12.07;11.07;;;18.50;98.20;;;;;;5119642;28;20214;-43
2021/06/26 04:59:28;;;;;;;12.60;11.40;;;18.50;97.90;;;;;;5118233;28;20427;-44
2021/06/26 05:01:54;;;;;;;12.20;10.87;;;18.50;97.90;;;;;;5119683;28;20898;-43
2021/06/26 05:04:21;;;;;;;12.57;11.30;;;18.60;98.00;;;;;;5119927;28;20262;-45
2021/06/26 05:06:47;;;;;;;12.53;11.33;;;18.70;97.80;;;;;;5119669;28;20502;-45
2021/06/26 05:09:12;;;;;;;11.47;10.47;;;18.70;97.80;;;;;;5117997;28;20417;-44
2021/06/26 05:11:38;;;;;;;12.53;11.33;;;18.70;97.60;;;;;;5118137;28;20878;-45
2021/06/26 05:14:08;;;;;;;11.80;10.63;;;18.80;97.60;;;;;;5119055;28;20195;-44
2021/06/26 05:16:37;;;;;;;11.97;10.97;;;18.90;97.70;;;;;;5118516;28;20475;-44
2021/06/26 05:19:03;;;;;;;12.60;11.57;;;19.00;97.50;;;;;;5118469;28;20493;-43
2021/06/26 05:21:29;;;;;;;12.70;11.40;;;19.10;97.20;;;;;;5115520;28;20794;-44
2021/06/26 05:23:54;;;;;;;11.70;10.70;;;19.20;97.00;;;;;;5115771;28;20500;-44
2021/06/26 05:26:20;;;;;;;12.67;11.53;;;19.30;97.10;;;;;;5116605;28;20582;-44
2021/06/26 05:28:46;;;;;;;11.93;10.80;;;19.50;96.80;;;;;;5116916;28;20418;-44
2021/06/26 05:31:13;;;;;;;12.90;11.70;;;19.70;96.70;;;;;;5115961;28;20516;-44
2021/06/26 05:33:40;;;;;;;12.40;11.30;;;19.90;96.60;;;;;;5116573;28;20190;-44
2021/06/26 05:36:06;;;;;;;12.83;11.70;;;20.10;96.30;;;;;;5118196;28;20433;-45
2021/06/26 05:38:31;;;;;;;12.17;11.07;;;20.20;95.80;;;;;;5119564;28;20409;-44
2021/06/26 05:40:58;;;;;;;13.47;12.07;;;20.30;95.90;;;;;;5118255;28;20506;-45
2021/06/26 05:43:23;;;;;;;16.43;14.93;;;20.30;95.90;;;;;;5117836;28;20240;-45
2021/06/26 05:45:49;;;;;;;15.73;14.20;;;20.20;96.00;;;;;;5117961;28;20433;-44
2021/06/26 05:48:15;;;;;;;14.10;12.70;;;20.20;96.30;;;;;;5118195;28;20422;-45
2021/06/26 05:50:42;;;;;;;15.90;14.50;;;20.30;96.30;;;;;;5118074;28;20183;-43
2021/06/26 05:53:07;;;;;;;13.80;12.50;;;20.40;96.20;;;;;;5117951;28;20638;-43
2021/06/26 05:55:33;;;;;;;15.63;14.17;;;20.50;96.20;;;;;;5117804;28;20421;-47
2021/06/26 05:57:59;;;;;;;17.80;16.10;;;20.70;95.90;;;;;;5118923;28;20272;-45
2021/06/26 06:00:28;;;;;;;15.90;14.40;;;20.90;95.60;;;;;;5119022;28;20418;-45
2021/06/26 06:02:54;;;;;;;15.90;14.37;;;20.90;95.40;;;;;;5118326;28;20175;-44
2021/06/26 06:05:20;;;;;;;16.00;14.50;;;21.10;95.40;;;;;;5118310;28;20519;-44
2021/06/26 06:07:46;;;;;;;15.83;14.33;;;21.30;95.50;;;;;;5118262;28;20488;-44
2021/06/26 06:10:14;;;;;;;17.13;15.20;;;21.40;95.10;;;;;;5118680;28;20787;-45
2021/06/26 06:12:40;;;;;;;17.30;15.60;;;21.40;94.80;;;;;;5118356;28;20735;-45
2021/06/26 06:15:09;;;;;;;14.07;12.63;;;21.50;94.80;;;;;;5117709;28;20428;-49
2021/06/26 06:17:35;;;;;;;17.93;16.20;;;21.60;94.80;;;;;;5118769;28;20466;-45
2021/06/26 06:20:04;;;;;;;18.90;17.20;;;21.90;94.10;;;;;;5117059;28;20707;-45
2021/06/26 06:22:30;;;;;;;16.77;15.27;;;22.00;93.60;;;;;;5116908;28;20171;-44
2021/06/26 06:24:56;;;;;;;17.90;16.20;;;21.90;93.70;;;;;;5117517;28;20436;-46
2021/06/26 06:27:22;;;;;;;16.80;15.17;;;21.80;93.70;;;;;;5117667;28;20780;-45
2021/06/26 06:29:49;;;;;;;16.37;14.93;;;21.70;94.00;;;;;;5117109;28;20302;-46
2021/06/26 06:32:15;;;;;;;17.37;15.77;;;21.70;94.20;;;;;;5116774;28;20189;-46
2021/06/26 06:34:41;;;;;;;17.67;16.00;;;21.70;94.50;;;;;;5116820;28;20425;-47
2021/06/26 06:37:07;;;;;;;16.43;14.83;;;21.80;94.40;;;;;;5116736;28;20590;-45
2021/06/26 06:39:33;;;;;;;16.30;14.80;;;21.90;94.00;;;;;;5116679;28;20171;-44
2021/06/26 06:41:59;;;;;;;16.20;14.80;;;21.90;94.10;;;;;;5116820;28;20513;-45
2021/06/26 06:44:25;;;;;;;14.83;13.37;;;22.10;94.20;;;;;;5098492;28;20486;-44
2021/06/26 06:46:51;;;;;;;17.67;15.07;;;22.40;93.90;;;;;;5118070;28;20421;-45
2021/06/26 06:49:17;;;;;;;13.63;12.43;;;22.70;93.70;;;;;;5117644;28;20299;-44
2021/06/26 06:51:42;;;;;;;17.13;15.53;;;23.00;93.40;;;;;;5117177;28;20577;-44
2021/06/26 06:54:08;;;;;;;17.93;16.33;;;23.30;93.00;;;;;;5117576;28;20414;-47
2021/06/26 06:56:34;;;;;;;17.53;15.83;;;23.40;92.00;;;;;;5117667;28;20214;-45
2021/06/26 06:59:00;;;;;;;17.87;16.17;;;23.30;91.80;;;;;;5116804;28;20179;-44
2021/06/26 07:01:27;;;;;;;16.03;14.53;;;23.30;91.60;;;;;;5116361;28;20163;-45
2021/06/26 07:03:53;;;;;;;17.13;15.33;;;23.10;91.90;;;;;;5116222;28;20440;-47
2021/06/26 07:06:19;;;;;;;18.67;16.87;;;23.30;91.90;;;;;;5116170;28;20429;-44
2021/06/26 07:08:45;;;;;;;16.90;15.37;;;23.20;91.30;;;;;;5115058;28;20160;-44
2021/06/26 07:11:11;;;;;;;17.07;15.57;;;23.10;92.20;;;;;;5114975;28;20428;-45
2021/06/26 07:13:36;;;;;;;19.50;16.80;;;23.40;91.70;;;;;;5114607;28;20266;-44
2021/06/26 07:16:03;;;;;;;15.50;14.10;;;23.70;91.40;;;;;;5113373;28;20236;-46
2021/06/26 07:18:29;;;;;;;16.47;14.97;;;23.90;90.50;;;;;;5113215;28;20536;-46
2021/06/26 07:20:54;;;;;;;16.43;14.93;;;24.10;90.40;;;;;;5113824;28;20422;-45
2021/06/26 07:23:21;;;;;;;14.93;13.63;;;24.10;89.70;;;;;;5114466;28;20254;-47
2021/06/26 07:25:47;;;;;;;13.50;12.30;;;24.20;90.50;;;;;;5113449;28;20203;-47
2021/06/26 07:28:13;;;;;;;15.43;14.03;;;24.40;90.30;;;;;;5114362;28;20692;-47
2021/06/26 07:30:38;;;;;;;23.30;13.70;;;24.40;90.30;;;;;;5114544;28;20445;-46
2021/06/26 07:33:04;;;;;;;19.60;17.70;;;24.50;90.20;;;;;;5097579;28;20182;-46
2021/06/26 07:35:30;;;;;;;17.87;16.17;;;24.60;87.20;;;;;;5115557;28;20512;-44
2021/06/26 07:37:56;;;;;;;18.57;16.90;;;24.60;87.30;;;;;;5114972;28;20453;-45
2021/06/26 07:40:24;;;;;;;14.23;12.90;;;24.70;87.60;;;;;;5114794;28;20436;-44
2021/06/26 07:42:50;;;;;;;15.77;14.40;;;24.60;89.30;;;;;;5115700;28;20566;-47
2021/06/26 07:45:16;;;;;;;17.20;15.50;;;25.00;87.70;;;;;;5115531;28;20460;-47
2021/06/26 07:47:42;;;;;;;13.53;12.33;;;25.20;86.80;;;;;;5113572;28;20163;-46
2021/06/26 07:50:08;;;;;;;13.50;12.40;;;25.50;87.30;;;;;;5115039;28;20911;-45
2021/06/26 07:52:34;;;;;;;15.37;14.07;;;25.80;85.30;;;;;;5114057;28;20172;-45
2021/06/26 07:55:00;;;;;;;12.90;11.80;;;26.10;82.30;;;;;;5096540;28;20433;-45
2021/06/26 07:57:26;;;;;;;12.93;11.83;;;26.10;81.60;;;;;;5114798;28;20753;-45
2021/06/26 07:59:52;;;;;;;12.20;11.20;;;26.20;80.30;;;;;;5115321;28;20573;-45
2021/06/26 08:02:18;;;;;;;14.50;13.00;;;26.10;81.50;;;;;;5115464;28;20238;-47
2021/06/26 08:04:44;;;;;;;11.47;10.37;;;26.20;80.10;;;;;;5115117;28;20309;-45
2021/06/26 08:07:10;;;;;;;11.67;10.67;;;26.50;76.80;;;;;;5115463;28;20167;-45
2021/06/26 08:09:35;;;;;;;11.73;10.77;;;26.60;79.00;;;;;;5115793;28;20672;-44
2021/06/26 08:12:01;;;;;;;12.57;11.37;;;27.00;77.20;;;;;;5116240;28;20226;-43
2021/06/26 08:14:27;;;;;;;12.60;11.50;;;27.10;75.90;;;;;;5115708;28;20168;-44
2021/06/26 08:16:53;;;;;;;14.17;13.00;;;26.60;77.70;;;;;;5098079;28;20472;-43
2021/06/26 08:19:19;;;;;;;14.80;13.30;;;26.50;76.40;;;;;;5098827;28;20180;-46
2021/06/26 08:21:46;;;;;;;12.37;11.27;;;25.90;75.90;;;;;;5116174;28;20617;-44
2021/06/26 08:24:13;;;;;;;12.50;11.50;;;25.40;78.90;;;;;;5115323;28;20175;-42
2021/06/26 08:26:38;;;;;;;15.17;13.90;;;25.10;81.90;;;;;;5115606;28;20496;-45
2021/06/26 08:29:04;;;;;;;14.07;12.83;;;25.10;80.30;;;;;;5115397;28;20910;-44
2021/06/26 08:31:30;;;;;;;14.17;12.97;;;25.00;80.10;;;;;;5115525;28;20178;-44
2021/06/26 08:33:56;;;;;;;12.73;11.53;;;25.00;80.00;;;;;;5115615;28;20178;-45
2021/06/26 08:36:22;;;;;;;11.60;10.70;;;25.10;79.10;;;;;;5114541;28;20216;-42
2021/06/26 08:38:48;;;;;;;12.03;10.80;;;25.30;81.10;;;;;;5115932;28;20179;-45
2021/06/26 08:41:18;;;;;;;11.20;10.20;;;25.30;78.20;;;;;;5116412;28;20835;-44
2021/06/26 08:43:44;;;;;;;12.50;11.50;;;25.40;78.40;;;;;;5115926;28;20421;-44
2021/06/26 08:46:09;;;;;;;10.87;9.97;;;25.20;75.30;;;;;;5114839;28;20700;-44
2021/06/26 08:48:38;;;;;;;9.80;9.00;;;25.00;76.50;;;;;;5115149;28;20179;-44
2021/06/26 08:51:04;;;;;;;10.40;9.50;;;24.90;79.30;;;;;;5112460;28;20172;-44
2021/06/26 08:53:30;;;;;;;10.10;9.30;;;25.00;79.00;;;;;;5113331;28;20512;-43
2021/06/26 08:55:56;;;;;;;11.70;10.37;;;25.10;79.00;;;;;;5096048;28;20673;-44
2021/06/26 08:58:22;;;;;;;11.80;10.80;;;25.40;76.70;;;;;;5095794;28;20625;-43
2021/06/26 09:00:48;;;;;;;10.67;9.83;;;25.80;78.00;;;;;;5113456;28;20543;-43
2021/06/26 09:03:16;;;;;;;11.40;10.37;;;26.10;76.70;;;;;;5114728;28;20500;-44
2021/06/26 09:05:44;;;;;;;11.83;10.90;;;26.50;79.00;;;;;;5114672;28;20452;-43
2021/06/26 09:08:16;;;;;;;12.37;11.37;;;26.80;76.80;;;;;;5115413;28;20417;-43
2021/06/26 09:10:44;;;;;;;11.93;10.93;;;26.50;74.50;;;;;;5096613;28;20673;-43
2021/06/26 09:13:12;;;;;;;10.93;10.13;;;26.30;76.30;;;;;;5114349;28;20469;-43
2021/06/26 09:15:39;;;;;;;11.57;10.57;;;25.70;79.80;;;;;;5117414;28;20799;-43
2021/06/26 09:18:41;;;;;;;9.30;8.60;;;26.00;73.10;;;;;;5118346;28;20493;-45
2021/06/26 09:21:25;;;;;;;10.20;9.40;;;26.20;71.00;;;;;;5117057;28;20425;-45
2021/06/26 09:24:07;;;;;;;9.83;8.97;;;26.50;72.10;;;;;;5119442;28;20405;-45
2021/06/26 09:26:57;;;;;;;11.43;10.53;;;26.90;71.90;;;;;;5117765;28;20434;-44
2021/06/26 09:29:23;;;;;;;10.30;9.50;;;27.20;73.50;;;;;;5116520;28;20426;-43
2021/06/26 09:31:55;;;;;;;11.60;10.70;;;27.50;74.10;;;;;;5116236;28;20432;-43
2021/06/26 09:34:23;;;;;;;13.37;9.77;;;27.70;69.90;;;;;;5117018;28;20687;-43
2021/06/26 09:37:12;;;;;;;10.77;9.97;;;28.10;72.50;;;;;;5097719;28;20918;-44
2021/06/26 09:39:43;;;;;;;11.70;10.70;;;28.20;71.00;;;;;;5115892;28;20400;-44
2021/06/26 09:42:39;;;;;;;10.67;9.87;;;28.20;67.40;;;;;;5118381;28;20498;-45
2021/06/26 09:45:20;;;;;;;11.27;10.30;;;28.20;69.20;;;;;;5115540;28;20854;-43
2021/06/26 09:47:47;;;;;;;11.90;11.00;;;28.40;71.30;;;;;;5116424;28;20835;-43
2021/06/26 09:50:24;;;;;;;12.27;11.17;;;28.60;66.40;;;;;;5116016;28;20425;-43
2021/06/26 09:53:04;;;;;;;10.43;9.63;;;28.20;65.60;;;;;;5114812;28;20428;-43
2021/06/26 09:55:32;;;;;;;13.03;11.90;;;27.80;65.60;;;;;;5097684;28;20618;-43
2021/06/26 09:58:00;;;;;;;10.67;9.77;;;27.30;65.60;;;;;;5098061;28;20473;-45
2021/06/26 10:00:29;;;;;;;10.83;10.03;;;27.00;69.00;;;;;;5115445;28;20409;-44
2021/06/26 10:02:56;;;;;;;11.00;10.20;;;27.20;72.30;;;;;;5098639;28;20544;-44
2021/06/26 10:05:22;;;;;;;10.90;10.10;;;27.40;71.10;;;;;;5117297;28;20441;-46
2021/06/26 10:07:51;;;;;;;10.20;9.40;;;28.10;67.10;;;;;;5117123;28;20425;-45
2021/06/26 10:10:21;;;;;;;11.43;10.53;;;28.50;69.30;;;;;;5117449;28;20501;-47
2021/06/26 10:12:53;;;;;;;12.63;11.53;;;28.70;68.50;;;;;;5117034;28;20481;-44
2021/06/26 10:15:28;;;;;;;11.07;10.17;;;29.20;64.70;;;;;;5116524;28;20717;-44
2021/06/26 10:17:54;;;;;;;10.53;9.63;;;29.20;63.50;;;;;;5116422;28;20546;-44
2021/06/26 10:20:22;;;;;;;10.83;9.93;;;29.50;66.40;;;;;;5116024;28;20413;-45
2021/06/26 10:22:57;;;;;;;11.83;10.83;;;30.10;63.10;;;;;;5116519;28;20860;-47
2021/06/26 10:25:35;;;;;;;10.90;10.10;;;29.90;60.10;;;;;;5117350;28;20480;-43
2021/06/26 10:28:06;;;;;;;11.30;10.30;;;29.20;61.20;;;;;;5117358;28;20425;-48
2021/06/26 10:30:34;;;;;;;10.80;10.00;;;28.60;64.60;;;;;;5116998;28;20466;-44
2021/06/26 10:33:11;;;;;;;9.77;9.03;;;28.20;64.80;;;;;;5116589;28;20404;-44
2021/06/26 10:38:58;;;;;;;9.60;8.80;;;28.50;66.20;;;;;;5116282;28;20870;-45
2021/06/26 10:44:05;;;;;;;9.53;8.77;;;30.30;60.70;;;;;;2300526;22;20238;-87
2021/06/26 10:46:31;;;;;;;10.60;9.70;;;30.70;58.70;;;;;;5106104;27;20439;-87
2021/06/26 10:49:05;;;;;;;9.77;8.97;;;30.20;57.70;;;;;;5122351;27;20395;-87
2021/06/26 10:51:50;;;;;;;8.30;7.63;;;29.60;61.60;;;;;;5122158;27;20175;-87
2021/06/26 10:54:18;;;;;;;8.43;7.83;;;29.60;58.10;;;;;;5110228;22;20496;-46
2021/06/26 10:56:48;;;;;;;9.27;8.57;;;29.30;60.20;;;;;;5134408;27;20477;-45
2021/06/26 10:59:19;;;;;;;9.33;8.53;;;29.10;60.40;;;;;;5134997;27;20406;-48
2021/06/26 11:02:03;;;;;;;8.03;7.43;;;29.30;62.30;;;;;;5135997;27;20404;-46
2021/06/26 11:04:29;;;;;;;9.47;8.77;;;29.20;58.30;;;;;;5133930;27;20679;-44
2021/06/26 11:07:08;;;;;;;9.07;8.37;;;29.00;60.30;;;;;;5134870;27;20417;-44
2021/06/26 11:09:46;;;;;;;9.23;8.53;;;28.80;62.00;;;;;;5135847;27;20391;-46
2021/06/26 11:12:13;;;;;;;8.97;8.23;;;28.90;59.20;;;;;;5135850;27;20503;-44
2021/06/26 11:14:52;;;;;;;8.20;7.60;;;29.20;61.60;;;;;;5135104;27;20698;-45
2021/06/26 11:17:21;;;;;;;9.60;8.80;;;30.00;58.80;;;;;;5135407;27;20476;-44
2021/06/26 11:19:47;;;;;;;7.50;7.00;;;30.70;55.90;;;;;;5136858;27;20478;-44
2021/06/26 11:22:14;;;;;;;9.13;8.30;;;30.80;54.80;;;;;;5136649;27;20876;-46
2021/06/26 11:24:42;;;;;;;9.87;8.87;;;30.90;57.80;;;;;;5136470;27;20178;-44
2021/06/26 11:27:12;;;;;;;8.13;7.50;;;31.00;56.40;;;;;;5136032;27;20409;-46
2021/06/26 11:29:40;;;;;;;8.03;7.43;;;30.70;56.40;;;;;;5137691;27;20375;-44
2021/06/26 11:32:20;;;;;;;8.00;7.40;;;30.50;56.30;;;;;;5118878;27;20406;-45
2021/06/26 11:34:57;;;;;;;8.30;7.70;;;30.20;56.20;;;;;;5136051;27;20391;-47
2021/06/26 11:37:24;;;;;;;8.07;7.47;;;30.30;57.70;;;;;;5118274;27;20450;-45
2021/06/26 11:39:50;;;;;;;10.23;9.43;;;30.80;58.00;;;;;;5118467;27;20416;-45
2021/06/26 11:42:18;;;;;;;9.60;8.80;;;31.40;54.20;;;;;;5137149;27;20407;-45
2021/06/26 11:44:44;;;;;;;9.83;9.13;;;31.40;56.50;;;;;;5136652;27;20414;-44
2021/06/26 11:47:11;;;;;;;8.40;7.80;;;31.30;55.80;;;;;;5136514;27;20445;-45
2021/06/26 11:49:42;;;;;;;8.60;8.00;;;31.20;54.50;;;;;;5118254;27;20438;-43
2021/06/26 11:52:10;;;;;;;8.30;7.70;;;31.10;54.80;;;;;;5136671;27;20642;-45
2021/06/26 11:54:36;;;;;;;9.47;8.77;;;30.60;53.70;;;;;;5136005;27;20477;-44
2021/06/26 11:57:02;;;;;;;8.33;7.73;;;30.10;58.30;;;;;;5135855;27;20878;-45
2021/06/26 11:59:42;;;;;;;7.23;6.73;;;30.10;56.10;;;;;;5118498;27;20519;-44
2021/06/26 12:02:09;;;;;;;7.57;7.00;;;30.20;56.50;;;;;;5135963;27;20539;-44
2021/06/26 12:04:35;;;;;;;7.33;6.83;;;30.20;55.60;;;;;;5135763;27;20393;-44
2021/06/26 12:07:00;;;;;;;8.50;7.80;;;30.10;53.70;;;;;;5135039;27;20387;-44
2021/06/26 12:09:26;;;;;;;7.93;7.33;;;29.20;56.40;;;;;;5133732;27;20244;-43
2021/06/26 12:11:55;;;;;;;8.63;8.03;;;29.40;59.70;;;;;;5133992;28;20573;-45
2021/06/26 12:14:29;;;;;;;8.23;7.53;;;30.40;57.00;;;;;;5116159;28;20183;-46
2021/06/26 12:17:05;;;;;;;7.57;6.87;;;30.60;55.00;;;;;;5116517;28;20567;-44
2021/06/26 12:19:32;;;;;;;8.63;7.93;;;30.50;54.20;;;;;;5099639;28;20516;-44
2021/06/26 12:21:59;;;;;;;8.00;7.30;;;30.30;52.90;;;;;;5115265;28;20380;-45
2021/06/26 12:24:24;;;;;;;8.60;8.00;;;30.00;53.10;;;;;;5116644;28;20414;-47
2021/06/26 12:27:01;;;;;;;7.37;6.80;;;29.90;53.20;;;;;;5117298;28;20818;-45
2021/06/26 12:29:27;;;;;;;7.53;6.93;;;29.60;55.00;;;;;;5116278;28;20546;-47
2021/06/26 12:31:52;;;;;;;7.60;7.10;;;29.10;56.40;;;;;;5115644;28;20406;-43
2021/06/26 12:34:18;;;;;;;7.80;7.10;;;28.80;56.10;;;;;;5131518;28;20199;-45
2021/06/26 12:36:54;;;;;;;6.90;6.40;;;28.80;55.90;;;;;;5135728;28;20508;-45
2021/06/26 12:39:21;;;;;;;7.40;6.90;;;28.40;55.60;;;;;;5134672;28;20478;-44
2021/06/26 12:41:58;;;;;;;6.80;6.40;;;28.30;56.70;;;;;;5136491;28;20795;-44